Aérodrome :
LOGIN :

S'inscrire | Disclaimer

   EN    FR    IT 

 










Légende :    VFR   VFR Marginal   IFR   IFR Intensif   IFR Très Intensif
Visi : 
Plafond : 
>= 8 km
>= 3000ft
5 à 8 km
1000 à 3000 ft
1500m à 5 km
500 à 1000 ft
800 à 1500m
200 à 500 ft
< 800m
< 200 ft
Symboles :   Orages  Brouillard  Fortes neiges  Fortes précipitations  Vent > 20 kt
SIGMETs :   Divers  Orages  Givrage  Turbulence  Onde Orograph.  Cendres Volcan.






- Altitude de l'aérodrome : 215 ft
- Code IATA : ABZ


EGPD - Aberdeen / Dyce

DERNIER METAR :
  • 090450Z AUTO 14003KT 9999 FEW010 BKN018 BKN048 10/09 Q1013 TEMPO BKN012

METARs EXPIRÉS :
  • 090420Z AUTO 16002KT 9999 BKN010 BKN019 BKN041 10/09 Q1013 TEMPO SCT010
  • 090350Z AUTO VRB02KT 9999 FEW010 SCT019 10/09 Q1013
  • 090320Z AUTO 15004KT 9999 FEW013 10/09 Q1014
  • 090250Z AUTO 17005KT 9999 NCD 10/09 Q1014 NOSIG
  • 090220Z AUTO 18005KT 9999 NCD 10/09 Q1014 NOSIG

TAF AMD TAF EGPD
Valide du 09 à 04h jusqu'au 10 à 00h UTC


090424Z 0904/0924 18006KT 9999 SCT040
PROB30
TEMPO 0904/0909 8000 -SHRA BKN012
TEMPO 0909/0924 5000 SHRA
PROB40
TEMPO 0912/0921 3000 +SHRA BKN012
BECMG 0921/0924 32010KT



MET'MAP, la Météo Aéronautique d'un coup d'oeil ! - Copyright ORBIFLY Décembre 2007 - Disclaimer

ORBIFLY MET'MAP TEAM :

Programmation & Développement : Alexandra Zaïnal
Sur une idée originale de : Baudouin d'Aumeries
Assistance à la programmation : Marc-Olivier Méhu
Soutien technique & logistique : Manuel Goepfert

Contact : metmap@orbifly.com




SOURCES & CREDITS :

   NOAA